Time;durP1;ratioP1;P1;durP2;ratioP2;P2;SDS_P1;SDS_P2;PMS_P1;PMS_P2;Temp;Humidity;BMP_temperature;BMP_pressure;BME280_temperature;BME280_humidity;BME280_pressure;Samples;Min_cycle;Max_cycle;Signal;HPM_P1;HPM_P2
2021/08/10 00:02:14;;;;;;;;;;;14.40;92.40;;;;;;4994598;28;19918;-72
2021/08/10 00:04:39;;;;;;;;;;;14.40;92.50;;;;;;4994943;28;19917;-73
2021/08/10 00:07:05;;;;;;;;;;;14.40;92.50;;;;;;4994119;28;19968;-72
2021/08/10 00:09:30;;;;;;;;;;;14.40;92.50;;;;;;5009619;28;19918;-73
2021/08/10 00:11:57;;;;;;;;;;;14.40;92.50;;;;;;4994654;28;19925;-73
2021/08/10 00:14:22;;;;;;;;;;;14.30;92.50;;;;;;4994426;28;19925;-73
2021/08/10 00:16:48;;;;;;;;;;;14.30;92.60;;;;;;4994330;28;19918;-72
2021/08/10 00:19:14;;;;;;;;;;;14.30;92.70;;;;;;4994596;28;19918;-73
2021/08/10 00:21:39;;;;;;;;;;;14.20;92.70;;;;;;4994177;28;19966;-72
2021/08/10 00:24:05;;;;;;;;;;;14.20;93.00;;;;;;4994318;28;19957;-72
2021/08/10 00:26:31;;;;;;;;;;;14.20;92.80;;;;;;4994354;28;19980;-72
2021/08/10 00:28:56;;;;;;;;;;;14.20;92.80;;;;;;4993631;28;19921;-72
2021/08/10 00:31:22;;;;;;;;;;;14.20;92.80;;;;;;4994266;28;19971;-71
2021/08/10 00:33:47;;;;;;;;;;;14.10;92.80;;;;;;4993876;28;20048;-72
2021/08/10 00:36:13;;;;;;;;;;;14.10;93.00;;;;;;4994195;28;20286;-72
2021/08/10 00:38:39;;;;;;;;;;;14.10;93.00;;;;;;4992565;28;19925;-72
2021/08/10 00:41:05;;;;;;;;;;;14.10;93.00;;;;;;4992290;28;19929;-72
2021/08/10 00:43:39;;;;;;;;;;;14.00;93.10;;;;;;4992660;28;19921;-72
2021/08/10 00:46:17;;;;;;;;;;;14.00;93.20;;;;;;4992213;28;19917;-72
2021/08/10 00:48:44;;;;;;;;;;;14.00;93.20;;;;;;4992382;28;19940;-73
2021/08/10 00:51:11;;;;;;;;;;;14.00;93.20;;;;;;4991956;28;19922;-71
2021/08/10 00:53:38;;;;;;;;;;;14.10;93.20;;;;;;4992304;28;19924;-72
2021/08/10 00:56:05;;;;;;;;;;;14.10;93.30;;;;;;4992256;28;20397;-71
2021/08/10 00:58:32;;;;;;;;;;;14.00;93.30;;;;;;4992261;28;19953;-64
2021/08/10 01:00:58;;;;;;;;;;;14.00;93.30;;;;;;4992283;28;19957;-64
2021/08/10 01:03:24;;;;;;;;;;;14.00;93.30;;;;;;4992003;28;20306;-63
2021/08/10 01:05:50;;;;;;;;;;;13.90;93.30;;;;;;5008704;28;19918;-65
2021/08/10 01:08:28;;;;;;;;;;;14.00;93.30;;;;;;4991730;28;19952;-63
2021/08/10 01:10:59;;;;;;;;;;;13.90;93.30;;;;;;4991580;28;20012;-64
2021/08/10 01:13:29;;;;;;;;;;;13.90;93.40;;;;;;4991079;28;19918;-65
2021/08/10 01:15:55;;;;;;;;;;;13.80;93.40;;;;;;4991852;28;19926;-64
2021/08/10 01:18:25;;;;;;;;;;;13.90;93.40;;;;;;4991658;28;19918;-64
2021/08/10 01:21:09;;;;;;;;;;;13.80;93.40;;;;;;4991870;28;19918;-64
2021/08/10 01:23:37;;;;;;;;;;;13.80;93.50;;;;;;4991230;28;20285;-64
2021/08/10 01:26:23;;;;;;;;;;;13.80;93.60;;;;;;4991765;28;19922;-65
2021/08/10 01:28:57;;;;;;;;;;;13.70;93.50;;;;;;4991226;28;19924;-63
2021/08/10 01:31:28;;;;;;;;;;;13.70;93.60;;;;;;4991683;28;20013;-64
2021/08/10 01:34:01;;;;;;;;;;;13.70;93.60;;;;;;4991369;28;20013;-64
2021/08/10 01:36:32;;;;;;;;;;;13.70;93.60;;;;;;4991738;28;20412;-64
2021/08/10 01:38:59;;;;;;;;;;;13.70;93.50;;;;;;4991139;28;19917;-66
2021/08/10 01:41:25;;;;;;;;;;;13.60;93.50;;;;;;4992824;28;19917;-65
2021/08/10 01:43:53;;;;;;;;;;;13.60;93.50;;;;;;4991794;28;19968;-64
2021/08/10 01:46:23;;;;;;;;;;;13.50;93.60;;;;;;4992725;28;20370;-65
2021/08/10 01:48:49;;;;;;;;;;;13.50;93.70;;;;;;4997517;28;19918;-63
2021/08/10 01:51:15;;;;;;;;;;;13.50;93.70;;;;;;4994364;28;20130;-65
2021/08/10 01:53:41;;;;;;;;;;;13.40;93.70;;;;;;4975380;28;19968;-63
2021/08/10 01:56:08;;;;;;;;;;;13.40;93.80;;;;;;4991020;28;19918;-64
2021/08/10 01:58:40;;;;;;;;;;;13.40;93.80;;;;;;4990942;28;19929;-63
2021/08/10 02:01:06;;;;;;;;;;;13.30;93.80;;;;;;5007634;28;19922;-63
2021/08/10 02:03:34;;;;;;;;;;;13.30;93.90;;;;;;5007231;28;20404;-64
2021/08/10 02:06:06;;;;;;;;;;;13.40;93.90;;;;;;4991281;28;19928;-65
2021/08/10 02:08:34;;;;;;;;;;;13.30;94.10;;;;;;4990783;28;19918;-64
2021/08/10 02:11:01;;;;;;;;;;;13.30;94.10;;;;;;4990630;28;19926;-64
2021/08/10 02:13:29;;;;;;;;;;;13.40;94.10;;;;;;4991300;28;20393;-64
2021/08/10 02:15:56;;;;;;;;;;;13.40;94.00;;;;;;5006993;28;20437;-64
2021/08/10 02:18:23;;;;;;;;;;;13.40;93.90;;;;;;4990802;28;19924;-63
2021/08/10 02:21:18;;;;;;;;;;;13.30;94.00;;;;;;4990650;28;19917;-63
2021/08/10 02:23:46;;;;;;;;;;;13.30;94.20;;;;;;4990589;28;20378;-64
2021/08/10 02:26:13;;;;;;;;;;;13.30;94.00;;;;;;4990520;28;19918;-65
2021/08/10 02:28:41;;;;;;;;;;;13.30;94.00;;;;;;4990734;28;19925;-64
2021/08/10 02:31:11;;;;;;;;;;;13.20;93.90;;;;;;4990960;28;20357;-64
2021/08/10 02:33:39;;;;;;;;;;;13.20;94.00;;;;;;4990513;28;20021;-65
2021/08/10 02:36:08;;;;;;;;;;;13.20;94.20;;;;;;4990834;28;19918;-63
2021/08/10 02:38:35;;;;;;;;;;;13.20;94.40;;;;;;4990262;28;20275;-64
2021/08/10 02:41:02;;;;;;;;;;;13.20;94.30;;;;;;4990868;28;19921;-65
2021/08/10 02:43:32;;;;;;;;;;;13.20;94.40;;;;;;4990481;28;19938;-65
2021/08/10 02:46:00;;;;;;;;;;;13.30;94.40;;;;;;4990733;28;19964;-64
2021/08/10 02:48:30;;;;;;;;;;;13.20;94.40;;;;;;4991844;28;19953;-64
2021/08/10 02:50:55;;;;;;;;;;;13.20;94.30;;;;;;4990516;28;19925;-65
2021/08/10 02:53:21;;;;;;;;;;;13.20;94.50;;;;;;4990665;28;19972;-64
2021/08/10 02:55:53;;;;;;;;;;;13.30;94.40;;;;;;5006576;28;20017;-64
2021/08/10 02:58:21;;;;;;;;;;;13.20;94.30;;;;;;4990524;28;20268;-63
2021/08/10 03:00:54;;;;;;;;;;;13.20;94.30;;;;;;4990751;28;20456;-64
2021/08/10 03:03:21;;;;;;;;;;;13.20;94.40;;;;;;4991464;28;19969;-65
2021/08/10 03:05:49;;;;;;;;;;;13.20;94.40;;;;;;4990608;28;20013;-62
2021/08/10 03:08:20;;;;;;;;;;;13.10;94.40;;;;;;4989862;28;19925;-64
2021/08/10 03:10:48;;;;;;;;;;;13.10;94.60;;;;;;5006941;28;20391;-64
2021/08/10 03:13:15;;;;;;;;;;;13.10;94.70;;;;;;4990071;28;19933;-65
2021/08/10 03:15:44;;;;;;;;;;;13.20;94.80;;;;;;4990522;28;19918;-65
2021/08/10 03:18:11;;;;;;;;;;;13.20;94.80;;;;;;4990246;28;19965;-65
2021/08/10 03:20:41;;;;;;;;;;;13.20;94.70;;;;;;4990092;28;19917;-65
2021/08/10 03:23:07;;;;;;;;;;;13.20;94.80;;;;;;4990499;28;20386;-63
2021/08/10 03:25:34;;;;;;;;;;;13.30;94.90;;;;;;4991259;28;19993;-65
2021/08/10 03:28:00;;;;;;;;;;;13.30;94.90;;;;;;4990194;28;20452;-64
2021/08/10 03:30:27;;;;;;;;;;;13.30;94.90;;;;;;4990328;28;19929;-63
2021/08/10 03:32:55;;;;;;;;;;;13.30;95.00;;;;;;5006459;28;19968;-65
2021/08/10 03:35:20;;;;;;;;;;;13.40;95.10;;;;;;4992088;28;19941;-65
2021/08/10 03:37:46;;;;;;;;;;;13.40;95.20;;;;;;4993177;28;19925;-64
2021/08/10 03:40:13;;;;;;;;;;;13.40;95.20;;;;;;4993802;28;19972;-62
2021/08/10 03:42:39;;;;;;;;;;;13.50;95.20;;;;;;4993738;28;19918;-62
2021/08/10 03:45:06;;;;;;;;;;;13.60;95.20;;;;;;4994567;28;19972;-61
2021/08/10 03:47:33;;;;;;;;;;;13.60;95.30;;;;;;4994665;28;19917;-62
2021/08/10 03:50:00;;;;;;;;;;;13.60;95.30;;;;;;4993393;28;19926;-61
2021/08/10 03:52:26;;;;;;;;;;;13.60;95.20;;;;;;4993378;28;19926;-61
2021/08/10 03:54:53;;;;;;;;;;;13.70;95.20;;;;;;4993576;28;19918;-60
2021/08/10 03:57:20;;;;;;;;;;;13.70;95.20;;;;;;4992605;28;20012;-62
2021/08/10 03:59:47;;;;;;;;;;;13.70;95.20;;;;;;4993512;28;20294;-60
2021/08/10 04:02:14;;;;;;;;;;;13.70;95.20;;;;;;4992716;28;19918;-60
2021/08/10 04:04:40;;;;;;;;;;;13.70;95.20;;;;;;4992460;28;19918;-60
2021/08/10 04:07:09;;;;;;;;;;;13.80;95.20;;;;;;4991913;28;20389;-61
2021/08/10 04:09:37;;;;;;;;;;;13.80;95.40;;;;;;5008692;28;19918;-61
2021/08/10 04:12:04;;;;;;;;;;;13.80;95.40;;;;;;4994611;28;19997;-60
2021/08/10 04:14:32;;;;;;;;;;;13.80;95.40;;;;;;4993534;28;19918;-63
2021/08/10 04:17:03;;;;;;;;;;;13.90;95.40;;;;;;4976204;28;20008;-61
2021/08/10 04:19:30;;;;;;;;;;;13.90;95.40;;;;;;4993100;28;19922;-61
2021/08/10 04:21:56;;;;;;;;;;;13.90;95.30;;;;;;4992976;28;19957;-62
2021/08/10 04:24:21;;;;;;;;;;;14.00;95.40;;;;;;4992829;28;19979;-60
2021/08/10 04:26:48;;;;;;;;;;;14.00;95.40;;;;;;4992675;28;19940;-62
2021/08/10 04:29:16;;;;;;;;;;;14.00;95.40;;;;;;4976502;28;19926;-60
2021/08/10 04:31:43;;;;;;;;;;;14.00;95.40;;;;;;4992731;28;20357;-60
2021/08/10 04:34:09;;;;;;;;;;;14.00;95.50;;;;;;4976688;28;19922;-62
2021/08/10 04:36:34;;;;;;;;;;;14.00;95.50;;;;;;5008518;28;19917;-61
2021/08/10 04:39:00;;;;;;;;;;;14.10;95.60;;;;;;4992642;28;19941;-60
2021/08/10 04:41:27;;;;;;;;;;;14.10;95.60;;;;;;4992306;28;19925;-62
2021/08/10 04:43:56;;;;;;;;;;;14.20;95.60;;;;;;4992503;28;19988;-60
2021/08/10 04:46:23;;;;;;;;;;;14.20;95.60;;;;;;4992255;28;19961;-60
2021/08/10 04:48:48;;;;;;;;;;;14.30;95.70;;;;;;4991738;28;19925;-61
2021/08/10 04:51:14;;;;;;;;;;;14.30;95.70;;;;;;4992475;28;19922;-60
2021/08/10 04:53:41;;;;;;;;;;;14.40;95.70;;;;;;4992485;28;19918;-60
2021/08/10 04:56:07;;;;;;;;;;;14.50;95.60;;;;;;4991830;28;19925;-62
2021/08/10 04:58:32;;;;;;;;;;;14.50;95.60;;;;;;4992282;28;19925;-60
2021/08/10 05:00:58;;;;;;;;;;;14.50;95.50;;;;;;4993384;28;19922;-62
2021/08/10 05:03:25;;;;;;;;;;;14.60;95.50;;;;;;5000949;28;19996;-62
2021/08/10 05:05:51;;;;;;;;;;;14.60;95.50;;;;;;4983092;28;19922;-62
2021/08/10 05:08:17;;;;;;;;;;;14.60;95.60;;;;;;5009421;28;19934;-63
2021/08/10 05:10:43;;;;;;;;;;;14.70;95.60;;;;;;4991843;28;19928;-62
2021/08/10 05:13:12;;;;;;;;;;;14.70;95.50;;;;;;4991622;28;19968;-63
2021/08/10 05:15:37;;;;;;;;;;;14.80;95.50;;;;;;4993158;28;20176;-63
2021/08/10 05:18:03;;;;;;;;;;;14.80;95.40;;;;;;4991376;28;19918;-63
2021/08/10 05:20:31;;;;;;;;;;;14.80;95.50;;;;;;4991294;28;20413;-62
2021/08/10 05:22:57;;;;;;;;;;;14.80;95.40;;;;;;4991775;28;19956;-60
2021/08/10 05:25:22;;;;;;;;;;;14.80;95.40;;;;;;5008263;28;20444;-61
2021/08/10 05:27:51;;;;;;;;;;;14.90;95.30;;;;;;4991165;28;19918;-61
2021/08/10 05:30:16;;;;;;;;;;;14.80;95.20;;;;;;4974786;28;19929;-62
2021/08/10 05:32:42;;;;;;;;;;;14.90;95.30;;;;;;4990942;28;19918;-62
2021/08/10 05:35:09;;;;;;;;;;;14.90;95.30;;;;;;4991655;28;19918;-61
2021/08/10 05:37:37;;;;;;;;;;;14.90;95.30;;;;;;4991388;28;19924;-64
2021/08/10 05:40:03;;;;;;;;;;;14.90;95.30;;;;;;4992789;28;19922;-60
2021/08/10 05:42:31;;;;;;;;;;;14.90;95.30;;;;;;4991725;28;19918;-62
2021/08/10 05:44:57;;;;;;;;;;;14.90;95.30;;;;;;5007640;28;20042;-63
2021/08/10 05:47:23;;;;;;;;;;;15.00;95.40;;;;;;4992370;28;19945;-62
2021/08/10 05:49:49;;;;;;;;;;;15.00;95.40;;;;;;4991431;28;19929;-61
2021/08/10 05:52:15;;;;;;;;;;;15.00;95.30;;;;;;4991157;28;20414;-62
2021/08/10 05:54:40;;;;;;;;;;;15.10;95.30;;;;;;4991440;28;19917;-62
2021/08/10 05:57:06;;;;;;;;;;;15.10;95.30;;;;;;5007340;28;20013;-63
2021/08/10 05:59:31;;;;;;;;;;;15.10;95.30;;;;;;4991624;28;20374;-62
2021/08/10 06:02:01;;;;;;;;;;;15.20;95.40;;;;;;5007661;28;20284;-60
2021/08/10 06:04:27;;;;;;;;;;;15.30;95.20;;;;;;4992224;28;20402;-61
2021/08/10 06:06:54;;;;;;;;;;;15.30;95.20;;;;;;4991068;28;20418;-62
2021/08/10 06:09:19;;;;;;;;;;;15.30;95.20;;;;;;4991258;28;19918;-62
2021/08/10 06:11:45;;;;;;;;;;;15.40;95.10;;;;;;4990706;28;19933;-60
2021/08/10 06:14:12;;;;;;;;;;;15.40;95.10;;;;;;5007583;28;19918;-60
2021/08/10 06:16:38;;;;;;;;;;;15.40;95.10;;;;;;4990807;28;19992;-62
2021/08/10 06:19:12;;;;;;;;;;;15.50;95.00;;;;;;4991171;28;20004;-61
2021/08/10 06:21:37;;;;;;;;;;;15.50;95.10;;;;;;4991130;28;20012;-60
2021/08/10 06:24:04;;;;;;;;;;;15.60;95.10;;;;;;4990698;28;19917;-60
2021/08/10 06:26:30;;;;;;;;;;;15.60;94.90;;;;;;5007306;28;20405;-62
2021/08/10 06:28:55;;;;;;;;;;;15.60;94.90;;;;;;4990920;28;20398;-61
2021/08/10 06:31:21;;;;;;;;;;;15.60;94.90;;;;;;4990383;28;19999;-61
2021/08/10 06:33:51;;;;;;;;;;;15.70;95.00;;;;;;4990983;28;20382;-62
2021/08/10 06:36:21;;;;;;;;;;;15.80;95.20;;;;;;4975038;28;19924;-61
2021/08/10 06:38:47;;;;;;;;;;;16.00;95.30;;;;;;4991986;28;19917;-61
2021/08/10 06:41:14;;;;;;;;;;;16.20;95.20;;;;;;5007278;28;19918;-72
2021/08/10 06:43:55;;;;;;;;;;;16.30;95.00;;;;;;4990703;28;19921;-69
2021/08/10 06:46:26;;;;;;;;;;;16.30;94.70;;;;;;5007028;28;19918;-72
2021/08/10 06:48:53;;;;;;;;;;;16.30;94.50;;;;;;5006553;28;19918;-71
2021/08/10 06:51:25;;;;;;;;;;;16.30;94.60;;;;;;5007046;28;19918;-71
2021/08/10 06:53:50;;;;;;;;;;;16.40;94.70;;;;;;4991682;28;20287;-63
2021/08/10 06:56:16;;;;;;;;;;;16.40;94.60;;;;;;4990482;28;19976;-66
2021/08/10 06:58:42;;;;;;;;;;;16.50;94.50;;;;;;5022569;23;20336;-61
2021/08/10 07:01:08;;;;;;;;;;;16.50;94.40;;;;;;5009764;28;19918;-60
2021/08/10 07:03:38;;;;;;;;;;;16.50;94.40;;;;;;5010059;28;19917;-60
2021/08/10 07:06:03;;;;;;;;;;;16.60;94.30;;;;;;5010234;28;20397;-61
2021/08/10 07:08:35;;;;;;;;;;;16.50;94.30;;;;;;4993922;28;19994;-60
2021/08/10 07:11:03;;;;;;;;;;;16.60;94.20;;;;;;4993317;28;20461;-61
2021/08/10 07:13:30;;;;;;;;;;;16.60;94.30;;;;;;4993663;28;19924;-60
2021/08/10 07:15:59;;;;;;;;;;;16.70;94.50;;;;;;4994087;28;19918;-63
2021/08/10 07:18:25;;;;;;;;;;;16.80;94.70;;;;;;4993645;28;19925;-61
2021/08/10 07:20:52;;;;;;;;;;;17.10;95.00;;;;;;4993617;28;19929;-60
2021/08/10 07:23:19;;;;;;;;;;;17.50;95.30;;;;;;4993816;28;19922;-61
2021/08/10 07:25:49;;;;;;;;;;;17.80;95.20;;;;;;4993442;28;19917;-61
2021/08/10 07:28:21;;;;;;;;;;;18.00;94.30;;;;;;4993693;28;19918;-61
2021/08/10 07:30:49;;;;;;;;;;;18.00;94.10;;;;;;4993205;28;20390;-60
2021/08/10 07:33:16;;;;;;;;;;;18.00;93.70;;;;;;4977771;28;19918;-60
2021/08/10 07:35:42;;;;;;;;;;;18.00;93.40;;;;;;4993690;28;20048;-60
2021/08/10 07:38:07;;;;;;;;;;;18.00;93.50;;;;;;4992942;28;20302;-60
2021/08/10 07:40:34;;;;;;;;;;;18.00;93.80;;;;;;4993630;28;19918;-60
2021/08/10 07:43:03;;;;;;;;;;;18.20;94.00;;;;;;4993130;28;19921;-60
2021/08/10 07:45:29;;;;;;;;;;;18.40;93.90;;;;;;4993379;28;19918;-60
2021/08/10 07:47:55;;;;;;;;;;;18.70;93.60;;;;;;4993275;28;19924;-61
2021/08/10 07:50:26;;;;;;;;;;;18.90;93.70;;;;;;4993072;28;19969;-61
2021/08/10 07:52:54;;;;;;;;;;;19.10;93.40;;;;;;4993278;28;19918;-60
2021/08/10 07:55:19;;;;;;;;;;;19.00;92.50;;;;;;4992747;28;20392;-61
2021/08/10 07:57:45;;;;;;;;;;;18.90;92.20;;;;;;4992953;28;19922;-60
2021/08/10 08:00:11;;;;;;;;;;;19.10;93.50;;;;;;4993180;28;19917;-60
2021/08/10 08:02:40;;;;;;;;;;;19.90;94.50;;;;;;4994234;28;19972;-60
2021/08/10 08:05:07;;;;;;;;;;;20.60;94.00;;;;;;4993234;28;19929;-60
2021/08/10 08:07:33;;;;;;;;;;;20.80;92.30;;;;;;4992572;28;19918;-60
2021/08/10 08:10:00;;;;;;;;;;;20.60;90.90;;;;;;4992626;28;20389;-61
2021/08/10 08:12:27;;;;;;;;;;;20.40;91.10;;;;;;4992966;28;19922;-60
2021/08/10 08:14:53;;;;;;;;;;;20.90;92.90;;;;;;4992595;28;19925;-60
2021/08/10 08:17:18;;;;;;;;;;;22.30;94.70;;;;;;4992528;28;20379;-61
2021/08/10 08:19:44;;;;;;;;;;;24.20;94.40;;;;;;4992882;28;19918;-60
2021/08/10 08:22:13;;;;;;;;;;;24.90;90.80;;;;;;4991781;28;19974;-60
2021/08/10 08:24:39;;;;;;;;;;;24.80;85.40;;;;;;4992790;28;20354;-60
2021/08/10 08:27:04;;;;;;;;;;;24.80;85.80;;;;;;4992393;28;19993;-61
2021/08/10 08:29:30;;;;;;;;;;;24.80;83.20;;;;;;4992396;28;19917;-60
2021/08/10 08:31:56;;;;;;;;;;;24.50;81.10;;;;;;4992376;28;19976;-60
2021/08/10 08:34:22;;;;;;;;;;;24.00;78.90;;;;;;4992079;28;20021;-60
2021/08/10 08:36:49;;;;;;;;;;;23.50;78.40;;;;;;4992409;28;19924;-61
2021/08/10 08:39:15;;;;;;;;;;;23.40;80.00;;;;;;4993855;28;19997;-60
2021/08/10 08:41:41;;;;;;;;;;;23.80;81.70;;;;;;4993387;28;19952;-60
2021/08/10 08:44:08;;;;;;;;;;;24.30;81.40;;;;;;4992423;28;20009;-61
2021/08/10 08:46:36;;;;;;;;;;;24.90;78.90;;;;;;4991897;28;20013;-61
2021/08/10 08:49:02;;;;;;;;;;;25.30;78.00;;;;;;4992377;28;20373;-61
2021/08/10 08:51:32;;;;;;;;;;;26.90;81.40;;;;;;4992273;28;20301;-61
2021/08/10 08:53:58;;;;;;;;;;;28.80;79.80;;;;;;4991899;28;19975;-63
2021/08/10 08:56:28;;;;;;;;;;;29.70;71.80;;;;;;4992440;28;19971;-63
2021/08/10 08:58:57;;;;;;;;;;;29.90;67.80;;;;;;4991929;28;19975;-63
2021/08/10 09:01:25;;;;;;;;;;;29.70;64.00;;;;;;4993267;28;19917;-63
2021/08/10 09:03:51;;;;;;;;;;;29.00;62.30;;;;;;4993307;28;19918;-63
2021/08/10 09:06:17;;;;;;;;;;;29.20;63.70;;;;;;4991657;28;20393;-63
2021/08/10 09:08:43;;;;;;;;;;;29.50;63.10;;;;;;4991677;28;19918;-63
2021/08/10 09:11:19;;;;;;;;;;;29.90;61.40;;;;;;4992014;28;20406;-63
2021/08/10 09:14:03;;;;;;;;;;;30.70;61.90;;;;;;4975623;28;20285;-63
2021/08/10 09:16:39;;;;;;;;;;;31.50;61.20;;;;;;4991314;28;19918;-63
2021/08/10 09:19:07;;;;;;;;;;;31.30;56.10;;;;;;4991764;28;20395;-63
2021/08/10 09:21:36;;;;;;;;;;;30.70;55.10;;;;;;4991750;28;20001;-63
2021/08/10 09:24:10;;;;;;;;;;;30.20;54.60;;;;;;4991598;28;19921;-63
2021/08/10 09:26:38;;;;;;;;;;;29.10;53.30;;;;;;4991719;28;19918;-63
2021/08/10 09:29:06;;;;;;;;;;;28.10;53.50;;;;;;4991218;28;19913;-64
2021/08/10 09:31:38;;;;;;;;;;;27.10;53.90;;;;;;4991677;28;19922;-62
2021/08/10 09:34:07;;;;;;;;;;;26.20;55.10;;;;;;4990214;28;19917;-62
2021/08/10 09:36:34;;;;;;;;;;;25.50;55.90;;;;;;4991129;28;19993;-63
2021/08/10 09:39:01;;;;;;;;;;;25.20;57.50;;;;;;4991241;28;19918;-63
2021/08/10 09:41:27;;;;;;;;;;;25.50;59.70;;;;;;4991091;28;19922;-62
2021/08/10 09:44:06;;;;;;;;;;;26.00;60.20;;;;;;4991441;28;20000;-63
2021/08/10 09:46:33;;;;;;;;;;;26.30;59.70;;;;;;4990958;28;19918;-63
2021/08/10 09:48:59;;;;;;;;;;;27.30;61.80;;;;;;4992298;28;19924;-63
2021/08/10 09:51:28;;;;;;;;;;;30.20;64.00;;;;;;4991228;28;19933;-63
2021/08/10 09:53:59;;;;;;;;;;;33.50;61.20;;;;;;4991106;28;19922;-63
2021/08/10 09:56:54;;;;;;;;;;;35.90;56.80;;;;;;4974910;28;20298;-63
2021/08/10 09:59:29;;;;;;;;;;;36.00;49.10;;;;;;4991846;28;19922;-63
2021/08/10 10:01:59;;;;;;;;;;;34.30;47.60;;;;;;4991106;28;19918;-63
2021/08/10 10:04:29;;;;;;;;;;;34.00;47.90;;;;;;4990665;28;20332;-63
2021/08/10 10:07:11;;;;;;;;;;;34.30;48.90;;;;;;4990937;28;20444;-63
2021/08/10 10:09:40;;;;;;;;;;;34.00;45.10;;;;;;4990588;28;19918;-62
2021/08/10 10:12:07;;;;;;;;;;;33.20;43.80;;;;;;4990786;28;19960;-63
2021/08/10 10:14:34;;;;;;;;;;;33.40;46.60;;;;;;4990689;28;19922;-63
2021/08/10 10:16:59;;;;;;;;;;;34.70;45.70;;;;;;4991762;28;19918;-63
2021/08/10 10:19:26;;;;;;;;;;;36.30;45.00;;;;;;4992088;28;19925;-63
2021/08/10 10:21:53;;;;;;;;;;;38.40;43.80;;;;;;4991973;28;19918;-63
2021/08/10 10:24:20;;;;;;;;;;;39.90;41.70;;;;;;4991889;28;19925;-63
2021/08/10 10:26:46;;;;;;;;;;;40.90;38.00;;;;;;4991373;28;20016;-64
2021/08/10 10:29:13;;;;;;;;;;;41.20;37.20;;;;;;4992050;28;19954;-63
2021/08/10 10:31:39;;;;;;;;;;;40.70;36.40;;;;;;4992049;28;20374;-63
2021/08/10 10:34:05;;;;;;;;;;;40.30;35.30;;;;;;4990461;28;19918;-63
2021/08/10 10:36:32;;;;;;;;;;;39.40;34.80;;;;;;4992011;28;20142;-64
2021/08/10 10:38:58;;;;;;;;;;;38.20;34.50;;;;;;4991149;28;19922;-64
2021/08/10 10:41:25;;;;;;;;;;;37.30;35.40;;;;;;4991789;28;19918;-63
2021/08/10 10:43:51;;;;;;;;;;;37.60;36.90;;;;;;4992150;28;20365;-64
2021/08/10 10:46:33;;;;;;;;;;;38.60;36.60;;;;;;4995222;28;19925;-65
2021/08/10 10:49:00;;;;;;;;;;;38.90;36.10;;;;;;4995539;28;19918;-65
2021/08/10 10:51:27;;;;;;;;;;;38.10;34.60;;;;;;4995721;28;19921;-63
2021/08/10 10:53:53;;;;;;;;;;;37.40;35.40;;;;;;4993976;28;20393;-63
2021/08/10 10:56:24;;;;;;;;;;;37.30;36.00;;;;;;4995740;28;19925;-65
2021/08/10 10:58:50;;;;;;;;;;;38.50;37.00;;;;;;4994755;28;19930;-64
2021/08/10 11:01:29;;;;;;;;;;;38.50;34.20;;;;;;4995202;28;19967;-64
2021/08/10 11:04:01;;;;;;;;;;;37.90;34.10;;;;;;4995313;28;19925;-63
2021/08/10 11:06:27;;;;;;;;;;;36.50;33.00;;;;;;4995627;28;19975;-63
2021/08/10 11:08:53;;;;;;;;;;;34.10;32.70;;;;;;4994735;28;19914;-62
2021/08/10 11:11:48;;;;;;;;;;;31.50;34.30;;;;;;4995359;28;19921;-63
2021/08/10 11:14:32;;;;;;;;;;;29.70;37.10;;;;;;4974801;28;20397;-63
2021/08/10 11:17:12;;;;;;;;;;;29.50;40.70;;;;;;4975689;28;19973;-62
2021/08/10 11:19:39;;;;;;;;;;;29.70;40.50;;;;;;4995174;28;19918;-62
2021/08/10 11:22:14;;;;;;;;;;;28.90;39.40;;;;;;4995198;28;20013;-62
2021/08/10 11:24:40;;;;;;;;;;;27.50;39.80;;;;;;4993411;28;19993;-63
2021/08/10 11:27:25;;;;;;;;;;;26.10;41.80;;;;;;4994901;28;19928;-62
2021/08/10 11:29:50;;;;;;;;;;;25.10;43.70;;;;;;4993300;28;19917;-63
2021/08/10 11:32:35;;;;;;;;;;;24.30;45.80;;;;;;4995000;28;19968;-62
2021/08/10 11:35:20;;;;;;;;;;;23.60;47.40;;;;;;4994462;28;19925;-62
2021/08/10 11:38:03;;;;;;;;;;;23.00;49.60;;;;;;4993816;28;20008;-60
2021/08/10 11:40:36;;;;;;;;;;;22.40;51.40;;;;;;4994808;28;20247;-60
2021/08/10 11:43:02;;;;;;;;;;;21.90;53.20;;;;;;4994586;28;19918;-60
2021/08/10 11:45:34;;;;;;;;;;;21.60;54.70;;;;;;4994841;28;20294;-60
2021/08/10 11:48:00;;;;;;;;;;;21.40;56.00;;;;;;4994112;28;19922;-59
2021/08/10 11:50:26;;;;;;;;;;;21.40;57.10;;;;;;4994861;28;19928;-60
2021/08/10 11:52:52;;;;;;;;;;;21.40;58.00;;;;;;4994699;28;20009;-60
2021/08/10 11:55:17;;;;;;;;;;;21.10;57.80;;;;;;4994213;28;19922;-61
2021/08/10 11:57:53;;;;;;;;;;;21.00;58.70;;;;;;4993152;28;19926;-60
2021/08/10 12:00:20;;;;;;;;;;;20.80;60.20;;;;;;4994122;28;20381;-61
2021/08/10 12:02:46;;;;;;;;;;;21.00;61.70;;;;;;4994519;28;19918;-60
2021/08/10 12:05:13;;;;;;;;;;;21.20;62.50;;;;;;4994672;28;19918;-60
2021/08/10 12:07:46;;;;;;;;;;;21.30;62.80;;;;;;4993666;28;19918;-61
2021/08/10 12:10:11;;;;;;;;;;;21.40;63.10;;;;;;4994171;28;19929;-60
2021/08/10 12:12:37;;;;;;;;;;;21.50;63.30;;;;;;4993835;28;20285;-60
2021/08/10 12:15:02;;;;;;;;;;;21.50;63.60;;;;;;4994237;28;19926;-60
2021/08/10 12:17:28;;;;;;;;;;;21.60;64.60;;;;;;4993895;28;19922;-60
2021/08/10 12:19:53;;;;;;;;;;;21.80;66.20;;;;;;4993813;28;19914;-61
2021/08/10 12:22:22;;;;;;;;;;;22.20;66.70;;;;;;4994206;28;19924;-61
2021/08/10 12:24:49;;;;;;;;;;;22.60;66.00;;;;;;4994170;28;19921;-61
2021/08/10 12:27:16;;;;;;;;;;;22.70;65.50;;;;;;4993377;28;19917;-61
2021/08/10 12:29:45;;;;;;;;;;;22.60;64.60;;;;;;4994100;28;19918;-61
2021/08/10 12:32:12;;;;;;;;;;;22.30;64.70;;;;;;4993603;28;19926;-60
2021/08/10 12:34:39;;;;;;;;;;;21.90;64.70;;;;;;4994178;28;20009;-60
2021/08/10 12:37:05;;;;;;;;;;;21.50;65.40;;;;;;4993491;28;19964;-60
2021/08/10 12:39:35;;;;;;;;;;;21.30;66.60;;;;;;4992927;28;19918;-60
2021/08/10 12:42:01;;;;;;;;;;;21.10;67.50;;;;;;4993664;28;20069;-60
2021/08/10 12:44:28;;;;;;;;;;;21.10;68.60;;;;;;4993670;28;20374;-60
2021/08/10 12:47:06;;;;;;;;;;;21.20;69.70;;;;;;4993180;28;19914;-61
2021/08/10 12:49:31;;;;;;;;;;;21.80;70.60;;;;;;4993145;28;19918;-60
2021/08/10 12:52:10;;;;;;;;;;;22.30;69.40;;;;;;4993025;28;19945;-63
2021/08/10 12:54:37;;;;;;;;;;;22.70;68.70;;;;;;4993317;28;19922;-60
2021/08/10 12:57:03;;;;;;;;;;;23.20;67.40;;;;;;4992292;28;20384;-61
2021/08/10 12:59:39;;;;;;;;;;;23.60;66.80;;;;;;5025144;22;19971;-64
2021/08/10 13:02:04;;;;;;;;;;;24.00;66.40;;;;;;5011293;28;19932;-63
2021/08/10 13:04:30;;;;;;;;;;;24.20;64.50;;;;;;5011760;28;19918;-64
2021/08/10 13:07:09;;;;;;;;;;;24.30;63.50;;;;;;5012778;28;19926;-63
2021/08/10 13:10:01;;;;;;;;;;;24.40;64.50;;;;;;5019649;28;20282;-64
2021/08/10 13:12:28;;;;;;;;;;;24.40;63.40;;;;;;5012016;28;20286;-66
2021/08/10 13:14:57;;;;;;;;;;;24.00;63.40;;;;;;5010833;28;20118;-64
2021/08/10 13:17:33;;;;;;;;;;;23.60;63.30;;;;;;5012250;28;19933;-65
2021/08/10 13:20:06;;;;;;;;;;;23.20;63.70;;;;;;5032126;28;19917;-72
2021/08/10 13:22:37;;;;;;;;;;;22.90;64.10;;;;;;5032240;28;20301;-64
2021/08/10 13:25:07;;;;;;;;;;;22.70;64.70;;;;;;5031792;28;19976;-65
2021/08/10 13:27:33;;;;;;;;;;;22.60;65.20;;;;;;5031810;28;19920;-64
2021/08/10 13:29:58;;;;;;;;;;;22.40;65.30;;;;;;5031701;28;19921;-64
2021/08/10 13:32:24;;;;;;;;;;;22.30;65.10;;;;;;5030994;28;20046;-64
2021/08/10 13:34:51;;;;;;;;;;;22.30;65.60;;;;;;5031067;28;20377;-64
2021/08/10 13:37:17;;;;;;;;;;;22.30;65.80;;;;;;5031458;28;20338;-63
2021/08/10 13:39:43;;;;;;;;;;;22.30;66.10;;;;;;5032075;28;20004;-63
2021/08/10 13:42:09;;;;;;;;;;;22.50;66.40;;;;;;5031872;28;19913;-64
2021/08/10 13:44:35;;;;;;;;;;;22.70;66.60;;;;;;5032194;28;19924;-65
2021/08/10 13:47:00;;;;;;;;;;;22.80;66.30;;;;;;5031823;28;19920;-64
2021/08/10 13:49:28;;;;;;;;;;;22.70;65.40;;;;;;5031650;28;19924;-63
2021/08/10 13:51:53;;;;;;;;;;;22.60;65.80;;;;;;5014248;28;19967;-64
2021/08/10 13:54:19;;;;;;;;;;;22.70;66.80;;;;;;5030740;28;19918;-63
2021/08/10 13:56:45;;;;;;;;;;;22.90;66.30;;;;;;5031297;28;19924;-63
2021/08/10 13:59:10;;;;;;;;;;;22.80;65.30;;;;;;5031574;28;19957;-63
2021/08/10 14:01:51;;;;;;;;;;;22.70;65.50;;;;;;5031944;28;19921;-65
2021/08/10 14:04:17;;;;;;;;;;;22.50;65.00;;;;;;5031771;28;20425;-64
2021/08/10 14:06:42;;;;;;;;;;;22.10;64.20;;;;;;5031500;28;19959;-63
2021/08/10 14:09:08;;;;;;;;;;;21.50;63.90;;;;;;5029950;28;19917;-64
2021/08/10 14:11:33;;;;;;;;;;;20.70;64.60;;;;;;5031242;28;19928;-64
2021/08/10 14:13:59;;;;;;;;;;;19.90;66.10;;;;;;5031424;28;20270;-64
2021/08/10 14:16:24;;;;;;;;;;;19.40;68.10;;;;;;5030912;28;20433;-63
2021/08/10 14:18:50;;;;;;;;;;;19.10;69.10;;;;;;5030522;28;19939;-64
2021/08/10 14:21:16;;;;;;;;;;;18.90;70.30;;;;;;5031104;28;20410;-64
2021/08/10 14:23:42;;;;;;;;;;;18.80;71.00;;;;;;5031175;28;19925;-63